• Join FlightAware (Why Join?)
  • Login
  • US Flag 
Rudolph Flight #1: Arrived! 
08:47AM EST


 

Airport Tracker/Info


-or-


 

Live Flight TrackerFlight Track Log ✈ N223D ✈ 05-Jul-2013 ✈ KCRQ - KHHR

Flight Track Log - Related Links

Times and Time Zones

All times are in EDT time to prevent confusion due to time zone crossing. See the N223D flight status page for this flight to view local times or setup timezone preferences in your user account.

Time Position Orientation Groundspeed Altitude Reporting Facility
EDT Latitude Longitude Course Direction KTS MPH feet Rate Location/Type
12:18PM 33.1333 -117.3000 239° Southwest 108 124 700  Level Southern California TRACON
12:19PM 33.1167 -117.3333 239° Southwest 116 133 1,500 720 Climbing Southern California TRACON
12:20PM 33.1167 -117.3667 270° West 117 135 2,200 540 Climbing Southern California TRACON
12:21PM 33.1189 -117.3881 277° West 115 132 2,400 660 Climbing Los Angeles Center
12:22PM 33.1617 -117.3981 349° North 123 142 3,300 720 Climbing Los Angeles Center
12:23PM 33.1917 -117.4069 346° North 118 136 4,000 540 Climbing Los Angeles Center
12:24PM 33.2333 -117.4167 349° North 116 133 4,700 540 Climbing Southern California TRACON
12:25PM 33.2667 -117.4333 337° Northwest 111 128 5,300 540 Climbing Southern California TRACON
12:26PM 33.2833 -117.4667 301° West 107 123 5,800 300 Climbing Southern California TRACON
12:27PM 33.3000 -117.4833 320° Northwest 128 147 5,900  Climbing Southern California TRACON
12:28PM 33.3333 -117.5167 320° Northwest 149 171 5,900  Level Southern California TRACON
12:29PM 33.3667 -117.5500 320° Northwest 158 182 5,900  Level Southern California TRACON
12:30PM 33.3889 -117.5906 303° West 152 175 5,900  Level Los Angeles Center
12:31PM 33.4247 -117.6283 319° Northwest 167 192 5,900  Level Los Angeles Center
12:32PM 33.4667 -117.6667 323° Northwest 163 188 5,900  Level Southern California TRACON
12:33PM 33.5000 -117.7167 309° West 168 193 5,900  Level Southern California TRACON
12:34PM 33.5333 -117.7500 320° Northwest 168 193 5,900  Level Southern California TRACON
12:35PM 33.5667 -117.8000 309° West 170 196 5,900  Level Southern California TRACON
12:36PM 33.6000 -117.8333 320° Northwest 169 194 5,900  Level Southern California TRACON
12:37PM 33.6333 -117.8667 320° Northwest 171 197 5,900  Level Southern California TRACON
12:38PM 33.6667 -117.9167 309° West 171 197 5,900 -360 Level Southern California TRACON
12:39PM 33.7000 -117.9500 320° Northwest 178 205 5,300 -840 Descending Southern California TRACON
12:40PM 33.7333 -117.9833 320° Northwest 164 189 4,300 -1,020 Descending Southern California TRACON
12:41PM 33.7667 -118.0333 309° West 148 170 3,300 -660 Descending Southern California TRACON
12:42PM 33.8000 -118.0667 320° Northwest 160 184 3,000 -180 Descending Southern California TRACON
12:43PM 33.8333 -118.0833 337° Northwest 151 174 3,000 -60 Level Southern California TRACON
12:44PM 33.8667 -118.1167 320° Northwest 131 151 2,900  Descending Southern California TRACON
12:45PM 33.8833 -118.1167 360° North 124 143 3,000  Climbing Southern California TRACON
12:46PM 33.9167 -118.0833 40° Northeast 126 145 2,900  Descending Southern California TRACON
12:47PM 33.9333 -118.0500 59° Northeast 123 142 3,000 -300 Climbing Southern California TRACON
12:48PM 33.9333 -118.0833 270° West 152 175 2,300 -480 Descending Southern California TRACON
12:49PM 33.9000 -118.1000 203° Southwest 120 138 2,100 -180 Descending Southern California TRACON
12:50PM 33.9167 -118.1333 301° West 106 122 2,000 -300 Descending Southern California TRACON
12:51PM 33.9333 -118.1667 301° West 129 148 1,600 -360 Descending Southern California TRACON
12:52PM 33.9289 -118.1772 243° Southwest 123 142 1,500 -120 Descending Los Angeles Center
12:53PM 33.9283 -118.2214 269° West 117 135 1,500 -60 Level Los Angeles Center
12:54PM 33.9267 -118.2525 266° West 104 120 1,400 -420 Descending Los Angeles Center
12:55PM 33.9253 -118.2878 267° West 103 119 700 -600 Descending Los Angeles Center
12:56PM 33.9242 -118.3225 268° West 105 121 200 -540 Descending Los Angeles Center
12:59PM 33.9167 -118.3333 270° West  Level FlightAware Approximate